Terminal Aerodrome Forecast
Issued by NWS Mobile, AL

Home | Current Version | Previous Version | Text Only | Print | Product List | Glossary On
Versions: 1 2 3 4 5 6 7 8 9 10 11 12 13 14 15 16 17
000
FTUS44 KMOB 300520
TAFPNS
TAF
KPNS 300520Z 3006/0106 12006KT P6SM OVC008
     FM300900 16008KT 4SM BR OVC006
     FM301500 15015KT P6SM BKN025
      TEMPO 3022/0102 4SM TSRA BKN015CB
     FM010200 14006KT P6SM FEW030 BKN070=

USA.gov is the U.S. government's official web portal to all federal, state and local government web resources and services.